Time;durP1;ratioP1;P1;durP2;ratioP2;P2;SDS_P1;SDS_P2;PMS_P1;PMS_P2;Temp;Humidity;BMP_temperature;BMP_pressure;BME280_temperature;BME280_humidity;BME280_pressure;Samples;Min_cycle;Max_cycle;Signal;HPM_P1;HPM_P2
2023/12/29 00:02:14;;;;;;;1.90;1.20;;;;;;;8.72;100.00;98880.00;5083260;28;20034;-78
2023/12/29 00:04:39;;;;;;;3.30;1.10;;;;;;;8.65;100.00;98882.63;5067939;28;20031;-78
2023/12/29 00:07:05;;;;;;;3.78;1.48;;;;;;;8.53;100.00;98866.09;5061469;28;20485;-78
2023/12/29 00:09:37;;;;;;;2.42;1.48;;;;;;;8.47;100.00;98853.38;5072135;28;20028;-79
2023/12/29 00:12:03;;;;;;;3.78;1.50;;;;;;;8.54;100.00;98858.84;5078038;28;20032;-78
2023/12/29 00:14:28;;;;;;;5.72;1.48;;;;;;;8.65;100.00;98871.03;5066151;28;20027;-78
2023/12/29 00:16:57;;;;;;;2.42;1.50;;;;;;;8.71;100.00;98867.56;5091294;28;20031;-78
2023/12/29 00:19:22;;;;;;;2.07;1.30;;;;;;;8.64;100.00;98855.84;5071968;28;20056;-78
2023/12/29 00:21:47;;;;;;;3.78;1.50;;;;;;;8.60;100.00;98846.47;5057391;28;20055;-77
2023/12/29 00:24:13;;;;;;;4.15;1.90;;;;;;;8.55;100.00;98841.66;5068331;28;20408;-78
2023/12/29 00:26:38;;;;;;;4.55;1.42;;;;;;;8.63;100.00;98854.19;5075028;28;20035;-79
2023/12/29 00:29:05;;;;;;;3.15;1.63;;;;;;;8.66;100.00;98851.09;5099582;28;20031;-78
2023/12/29 00:31:31;;;;;;;2.60;1.73;;;;;;;8.82;100.00;98872.44;5068354;28;20050;-79
2023/12/29 00:33:56;;;;;;;4.03;1.50;;;;;;;8.82;100.00;98874.31;5082317;28;20028;-79
2023/12/29 00:36:22;;;;;;;3.53;1.92;;;;;;;8.80;100.00;98863.72;5073133;28;20042;-79
2023/12/29 00:38:47;;;;;;;2.90;1.67;;;;;;;8.68;100.00;98844.50;5082371;28;20028;-78
2023/12/29 00:41:13;;;;;;;3.13;1.60;;;;;;;8.93;100.00;98871.97;5081350;28;20032;-79
2023/12/29 00:43:38;;;;;;;3.45;1.92;;;;;;;8.74;100.00;98846.41;5071818;28;20166;-79
2023/12/29 00:46:05;;;;;;;3.15;1.60;;;;;;;8.81;100.00;98857.31;5073289;28;20025;-78
2023/12/29 00:48:33;;;;;;;3.78;1.80;;;;;;;8.86;100.00;98865.66;5079793;28;20028;-77
2023/12/29 00:51:01;;;;;;;3.27;1.60;;;;;;;8.87;100.00;98870.03;5077458;28;20028;-79
2023/12/29 00:53:26;;;;;;;4.93;1.92;;;;;;;8.89;100.00;98865.28;5070495;28;20345;-79
2023/12/29 00:55:51;;;;;;;3.00;1.80;;;;;;;8.85;100.00;98861.28;5062757;28;20075;-78
2023/12/29 00:58:17;;;;;;;3.85;1.98;;;;;;;8.84;100.00;98866.88;5068225;28;20043;-79
2023/12/29 01:00:42;;;;;;;3.60;1.92;;;;;;;8.75;100.00;98867.00;5052985;28;20035;-78
2023/12/29 01:03:07;;;;;;;2.92;1.92;;;;;;;8.75;100.00;98882.31;5066655;28;20097;-79
2023/12/29 01:05:32;;;;;;;2.85;1.63;;;;;;;8.78;100.00;98893.59;5058781;28;20060;-78
2023/12/29 01:07:58;;;;;;;3.53;1.90;;;;;;;8.56;100.00;98873.81;5065462;28;20063;-79
2023/12/29 01:10:23;;;;;;;2.88;1.92;;;;;;;8.58;100.00;98886.28;5059701;28;20016;-78
2023/12/29 01:12:48;;;;;;;3.35;1.90;;;;;;;8.36;100.00;98856.53;5073585;28;20044;-79
2023/12/29 01:15:14;;;;;;;7.22;2.30;;;;;;;8.16;100.00;98836.56;5082646;28;20071;-78
2023/12/29 01:17:40;;;;;;;4.43;2.28;;;;;;;8.39;100.00;98887.66;5070878;28;20030;-78
2023/12/29 01:20:05;;;;;;;4.18;2.55;;;;;;;8.37;100.00;98879.75;5067772;28;20639;-78
2023/12/29 01:22:31;;;;;;;4.57;2.38;;;;;;;8.27;100.00;98892.69;5067538;28;20035;-78
2023/12/29 01:24:58;;;;;;;7.35;2.50;;;;;;;8.18;100.00;98870.38;5054641;28;20036;-78
2023/12/29 01:27:24;;;;;;;3.75;2.50;;;;;;;8.19;100.00;98885.53;5064259;28;20055;-78
2023/12/29 01:29:49;;;;;;;7.22;2.50;;;;;;;8.23;100.00;98880.63;5053591;28;20025;-78
2023/12/29 01:32:14;;;;;;;4.47;2.35;;;;;;;8.18;100.00;98869.56;5057572;28;20024;-78
2023/12/29 01:34:41;;;;;;;5.75;2.80;;;;;;;8.26;100.00;98893.72;5044708;28;20086;-79
2023/12/29 01:37:06;;;;;;;4.57;2.72;;;;;;;8.15;100.00;98862.69;5083557;28;20056;-79
2023/12/29 01:39:33;;;;;;;7.75;3.25;;;;;;;8.31;100.00;98881.34;5069144;28;20510;-79
2023/12/29 01:41:58;;;;;;;4.18;2.55;;;;;;;8.31;100.00;98875.13;5061180;28;20124;-79
2023/12/29 01:44:24;;;;;;;4.45;2.47;;;;;;;8.46;100.00;98896.69;5075032;28;20052;-79
2023/12/29 01:46:51;;;;;;;5.22;2.63;;;;;;;8.44;100.00;98888.81;5082911;28;20024;-78
2023/12/29 01:49:18;;;;;;;5.60;2.65;;;;;;;8.28;100.00;98875.50;5073228;28;20024;-77
2023/12/29 01:51:45;;;;;;;5.85;2.72;;;;;;;8.36;100.00;98888.88;5084271;28;20135;-79
2023/12/29 01:54:12;;;;;;;4.20;2.55;;;;;;;8.25;100.00;98862.38;5080663;28;20028;-78
2023/12/29 01:56:38;;;;;;;3.70;2.60;;;;;;;8.40;100.00;98892.88;5087229;28;20024;-79
2023/12/29 01:59:04;;;;;;;4.18;2.45;;;;;;;8.22;100.00;98862.75;5078988;28;20021;-79
2023/12/29 02:01:29;;;;;;;4.50;2.38;;;;;;;8.20;100.00;98851.31;5074784;28;20031;-79
2023/12/29 02:03:55;;;;;;;4.97;2.72;;;;;;;8.40;100.00;98859.72;5069578;28;20489;-79
2023/12/29 02:06:21;;;;;;;6.22;2.40;;;;;;;8.37;100.00;98836.63;5057028;28;20031;-79
2023/12/29 02:08:47;;;;;;;3.83;2.28;;;;;;;8.53;100.00;98841.00;5077794;28;20115;-79
2023/12/29 02:11:13;;;;;;;4.47;2.55;;;;;;;8.67;100.00;98850.06;5071571;28;20485;-79
2023/12/29 02:13:39;;;;;;;3.28;2.30;;;;;;;8.57;100.00;98820.72;5070450;28;20547;-79
2023/12/29 02:16:11;;;;;;;4.60;2.25;;;;;;;8.78;100.00;98857.69;5068855;28;20028;-78
2023/12/29 02:18:38;;;;;;;5.45;2.45;;;;;;;8.66;100.00;98824.97;5072757;28;20062;-78
2023/12/29 02:21:04;;;;;;;4.07;2.28;;;;;;;8.79;100.00;98843.16;5061477;28;20025;-78
2023/12/29 02:23:29;;;;;;;6.28;2.60;;;;;;;8.70;100.00;98820.03;5089424;28;20073;-78
2023/12/29 02:26:02;;;;;;;4.50;2.60;;;;;;;8.79;100.00;98837.75;5064413;28;20131;-78
2023/12/29 02:28:27;;;;;;;5.63;3.08;;;;;;;8.86;100.00;98840.53;5057423;28;20461;-79
2023/12/29 02:31:13;;;;;;;2.75;2.10;;;;;;;8.76;100.00;98809.31;5079633;28;20114;-79
2023/12/29 02:33:40;;;;;;;3.88;2.10;;;;;;;8.92;100.00;98828.97;5082826;28;20024;-79
2023/12/29 02:36:07;;;;;;;6.88;2.45;;;;;;;8.79;100.00;98794.59;5085181;28;20044;-78
2023/12/29 02:38:33;;;;;;;3.15;2.10;;;;;;;8.94;100.00;98808.88;5056532;28;20024;-79
2023/12/29 02:40:59;;;;;;;3.58;1.85;;;;;;;8.95;100.00;98802.44;5062727;23;20552;-76
2023/12/29 02:43:24;;;;;;;4.50;2.42;;;;;;;8.95;100.00;98794.34;5037505;28;20017;-80
2023/12/29 02:45:50;;;;;;;3.15;2.03;;;;;;;9.08;100.00;98812.53;5048515;28;20394;-78
2023/12/29 02:48:15;;;;;;;3.10;1.95;;;;;;;9.03;100.00;98797.94;5051509;28;20035;-79
2023/12/29 02:50:40;;;;;;;3.60;2.05;;;;;;;9.06;100.00;98803.78;5066494;28;20097;-80
2023/12/29 02:53:06;;;;;;;2.90;1.92;;;;;;;9.18;100.00;98817.59;5066339;28;20036;-80
2023/12/29 02:55:32;;;;;;;4.78;2.10;;;;;;;9.11;100.00;98792.41;5056670;28;20021;-79
2023/12/29 02:57:57;;;;;;;5.65;1.98;;;;;;;9.12;100.00;98796.78;5062837;28;20109;-79
2023/12/29 03:00:22;;;;;;;2.90;2.05;;;;;;;9.11;100.00;98789.72;5074525;28;20055;-76
2023/12/29 03:02:48;;;;;;;3.85;2.50;;;;;;;9.25;100.00;98809.53;5072004;28;20157;-77
2023/12/29 03:05:14;;;;;;;4.88;2.00;;;;;;;9.16;100.00;98795.38;5054439;28;20024;-77
2023/12/29 03:07:40;;;;;;;4.93;1.90;;;;;;;9.11;100.00;98787.84;5070809;28;20024;-78
2023/12/29 03:10:07;;;;;;;5.40;2.05;;;;;;;9.37;100.00;98814.22;5059044;28;20028;-77
2023/12/29 03:12:32;;;;;;;6.03;2.35;;;;;;;9.27;100.00;98800.22;5061332;28;20103;-79
2023/12/29 03:14:57;;;;;;;4.30;2.08;;;;;;;9.30;100.00;98807.97;5064133;28;20573;-78
2023/12/29 03:17:23;;;;;;;3.80;1.85;;;;;;;9.25;100.00;98809.53;5078393;28;20449;-77
2023/12/29 03:19:48;;;;;;;3.13;2.03;;;;;;;9.24;100.00;98803.31;5081680;28;20052;-76
2023/12/29 03:22:13;;;;;;;4.18;2.35;;;;;;;9.29;100.00;98806.28;5076491;28;20074;-79
2023/12/29 03:24:42;;;;;;;2.88;1.98;;;;;;;9.26;100.00;98790.47;5068656;28;20527;-77
2023/12/29 03:27:07;;;;;;;6.50;2.38;;;;;;;9.12;100.00;98759.84;5055004;28;20119;-78
2023/12/29 03:29:33;;;;;;;5.68;2.20;;;;;;;9.37;100.00;98794.50;5071744;28;20170;-78
2023/12/29 03:31:58;;;;;;;2.95;2.10;;;;;;;9.19;100.00;98754.47;5072860;28;20162;-77
2023/12/29 03:34:23;;;;;;;4.45;2.10;;;;;;;9.20;100.00;98772.38;5046474;28;20154;-79
2023/12/29 03:36:49;;;;;;;5.00;2.28;;;;;;;9.18;100.00;98764.44;5056204;28;20498;-79
2023/12/29 03:39:14;;;;;;;4.38;2.40;;;;;;;9.21;100.00;98782.94;5062218;28;20029;-77
2023/12/29 03:41:39;;;;;;;7.65;2.40;;;;;;;9.16;100.00;98784.56;5060179;28;20069;-78
2023/12/29 03:44:06;;;;;;;6.20;2.13;;;;;;;9.06;100.00;98763.28;5055078;28;20020;-78
2023/12/29 03:46:31;;;;;;;4.55;2.22;;;;;;;9.08;100.00;98768.50;5066929;28;20023;-77
2023/12/29 03:48:57;;;;;;;4.00;2.00;;;;;;;9.09;100.00;98783.66;5058927;28;20424;-77
2023/12/29 03:51:22;;;;;;;3.60;2.25;;;;;;;8.81;100.00;98748.56;5053058;28;20109;-80
2023/12/29 03:53:47;;;;;;;5.88;2.13;;;;;;;9.00;100.00;98773.00;5076953;28;20028;-78
2023/12/29 03:56:18;;;;;;;4.20;2.30;;;;;;;9.10;100.00;98788.06;5048445;28;20024;-77
2023/12/29 03:58:45;;;;;;;3.78;1.90;;;;;;;8.98;100.00;98772.38;5073560;28;20116;-78
2023/12/29 04:01:11;;;;;;;4.25;2.30;;;;;;;9.12;100.00;98791.41;5058791;28;20028;-78
2023/12/29 04:03:37;;;;;;;6.18;2.58;;;;;;;9.07;100.00;98791.16;5063658;28;20032;-78
2023/12/29 04:06:03;;;;;;;3.00;1.88;;;;;;;8.97;100.00;98769.88;5061673;28;20028;-78
2023/12/29 04:08:28;;;;;;;5.53;2.42;;;;;;;8.84;100.00;98748.16;5053714;28;20405;-78
2023/12/29 04:10:53;;;;;;;3.92;2.10;;;;;;;8.99;100.00;98781.31;5048455;28;20028;-78
2023/12/29 04:13:18;;;;;;;4.55;2.20;;;;;;;9.03;100.00;98787.97;5079161;28;20095;-78
2023/12/29 04:15:44;;;;;;;3.55;2.45;;;;;;;9.00;100.00;98759.50;5047083;28;20132;-79
2023/12/29 04:18:09;;;;;;;3.83;1.90;;;;;;;8.84;100.00;98750.88;5076992;28;20099;-78
2023/12/29 04:20:34;;;;;;;5.50;2.70;;;;;;;8.76;100.00;98760.75;5064071;28;20101;-78
2023/12/29 04:23:00;;;;;;;5.43;2.47;;;;;;;8.53;100.00;98757.41;5072156;28;20446;-77
2023/12/29 04:25:25;;;;;;;4.43;2.17;;;;;;;8.43;100.00;98755.00;5072704;28;20085;-78
2023/12/29 04:27:50;;;;;;;4.55;2.35;;;;;;;8.33;100.00;98755.31;5068946;28;20024;-78
2023/12/29 04:30:16;;;;;;;3.85;2.20;;;;;;;8.38;100.00;98783.53;5054230;28;20110;-77
2023/12/29 04:32:41;;;;;;;4.57;2.90;;;;;;;8.35;100.00;98792.84;5073899;28;20035;-77
2023/12/29 04:35:07;;;;;;;6.65;2.75;;;;;;;8.30;100.00;98787.19;5075580;28;20020;-76
2023/12/29 04:37:32;;;;;;;8.45;2.58;;;;;;;8.41;100.00;98805.63;5063220;28;20016;-78
2023/12/29 04:39:57;;;;;;;5.72;2.53;;;;;;;8.34;100.00;98794.72;5062140;28;20396;-79
2023/12/29 04:42:22;;;;;;;4.53;2.72;;;;;;;8.35;100.00;98803.63;5061549;28;20039;-78
2023/12/29 04:44:48;;;;;;;4.22;2.30;;;;;;;8.29;100.00;98790.91;5072499;28;20078;-78
2023/12/29 04:47:13;;;;;;;5.20;2.70;;;;;;;8.52;100.00;98826.69;5071726;28;20078;-78
2023/12/29 04:49:38;;;;;;;5.55;2.30;;;;;;;8.34;100.00;98810.06;5069555;28;20368;-79
2023/12/29 04:52:04;;;;;;;7.82;3.40;;;;;;;8.36;100.00;98837.66;5060118;28;20120;-78
2023/12/29 04:54:29;;;;;;;4.30;2.72;;;;;;;8.35;100.00;98833.28;5061928;28;20122;-77
2023/12/29 04:56:55;;;;;;;8.20;3.50;;;;;;;8.21;100.00;98826.06;5057893;28;20033;-77
2023/12/29 04:59:20;;;;;;;5.35;3.00;;;;;;;8.22;100.00;98841.19;5054769;28;20021;-77
2023/12/29 05:01:45;;;;;;;5.55;2.38;;;;;;;8.16;100.00;98839.25;5040840;28;20538;-77
2023/12/29 05:04:11;;;;;;;4.47;3.10;;;;;;;8.07;100.00;98833.97;5061048;28;20568;-77
2023/12/29 05:06:36;;;;;;;5.40;3.25;;;;;;;8.09;100.00;98842.69;5063269;28;20023;-77
2023/12/29 05:09:02;;;;;;;6.22;3.25;;;;;;;8.06;100.00;98840.38;5079739;28;20037;-77
2023/12/29 05:11:27;;;;;;;5.00;2.78;;;;;;;8.05;100.00;98838.69;5055689;28;20115;-77
2023/12/29 05:13:53;;;;;;;5.85;2.92;;;;;;;8.05;100.00;98838.69;5065026;28;20025;-77
2023/12/29 05:16:18;;;;;;;7.45;2.90;;;;;;;8.03;100.00;98839.91;5078267;28;20824;-77
2023/12/29 05:18:43;;;;;;;6.00;3.50;;;;;;;7.90;100.00;98816.31;5066437;28;20024;-76
2023/12/29 05:21:17;;;;;;;5.25;3.55;;;;;;;8.02;100.00;98849.03;5058238;28;20071;-76
2023/12/29 05:23:43;;;;;;;6.65;3.75;;;;;;;7.88;100.00;98834.50;5045636;28;20295;-76
2023/12/29 05:26:09;;;;;;;9.32;3.33;;;;;;;7.84;100.00;98834.06;5081195;28;20024;-77
2023/12/29 05:28:34;;;;;;;7.43;3.55;;;;;;;7.78;100.00;98840.19;5072717;28;20070;-77
2023/12/29 05:31:03;;;;;;;10.35;3.60;;;;;;;7.81;100.00;98834.44;5052853;28;20028;-77
2023/12/29 05:33:28;;;;;;;4.45;2.92;;;;;;;7.94;100.00;98854.47;5067654;28;20428;-77
2023/12/29 05:35:54;;;;;;;10.32;3.13;;;;;;;7.83;100.00;98845.00;5053075;28;20036;-77
2023/12/29 05:38:19;;;;;;;8.27;4.07;;;;;;;7.87;100.00;98849.84;5056859;28;20032;-77
2023/12/29 05:40:44;;;;;;;7.55;3.90;;;;;;;7.67;100.00;98828.00;5044438;28;20112;-79
2023/12/29 05:43:09;;;;;;;8.70;3.63;;;;;;;7.74;100.00;98832.66;5066773;28;20029;-80
2023/12/29 05:45:35;;;;;;;6.43;3.97;;;;;;;7.79;100.00;98841.84;5064979;28;20489;-79
2023/12/29 05:48:00;;;;;;;8.40;3.88;;;;;;;7.81;100.00;98833.59;5070819;28;20116;-79
2023/12/29 05:50:25;;;;;;;6.65;4.00;;;;;;;7.86;100.00;98863.50;5051635;28;20028;-82
2023/12/29 05:52:51;;;;;;;6.45;3.60;;;;;;;7.74;100.00;98852.34;5055722;28;20114;-80
2023/12/29 05:55:18;;;;;;;6.88;3.85;;;;;;;7.90;100.00;98856.72;5056209;28;20056;-81
2023/12/29 05:57:43;;;;;;;6.65;3.17;;;;;;;7.88;100.00;98858.75;5047412;28;20023;-81
2023/12/29 06:00:14;;;;;;;6.10;3.25;;;;;;;7.95;100.00;98867.78;5047176;28;20112;-80
2023/12/29 06:02:42;;;;;;;5.20;3.17;;;;;;;7.89;100.00;98863.97;5044158;28;20102;-79
2023/12/29 06:05:10;;;;;;;4.50;2.90;;;;;;;7.79;100.00;98839.16;5057530;28;20021;-80
2023/12/29 06:07:35;;;;;;;6.70;3.92;;;;;;;7.83;100.00;98855.78;5055236;28;20032;-81
2023/12/29 06:10:01;;;;;;;9.23;3.10;;;;;;;7.89;100.00;98871.22;5057085;28;20480;-81
2023/12/29 06:12:26;;;;;;;4.15;2.80;;;;;;;7.79;100.00;98851.78;5054855;28;20116;-80
2023/12/29 06:14:51;;;;;;;5.00;3.15;;;;;;;7.82;100.00;98854.94;5071767;28;20036;-80
2023/12/29 06:17:16;;;;;;;6.07;3.00;;;;;;;7.76;100.00;98849.47;5063408;28;20032;-78
2023/12/29 06:19:42;;;;;;;8.15;3.25;;;;;;;7.61;100.00;98835.97;5060595;28;20024;-78
2023/12/29 06:22:11;;;;;;;8.13;3.70;;;;;;;7.64;100.00;98855.28;5070029;28;20032;-80
2023/12/29 06:24:37;;;;;;;6.28;4.18;;;;;;;7.51;100.00;98841.63;5056384;28;20021;-79
2023/12/29 06:27:03;;;;;;;5.63;4.00;;;;;;;7.23;100.00;98801.84;5062414;28;20039;-79
2023/12/29 06:29:28;;;;;;;7.53;4.15;;;;;;;7.44;100.00;98840.66;5067544;28;20032;-79
2023/12/29 06:31:53;;;;;;;8.35;4.20;;;;;;;7.36;100.00;98840.75;5091953;28;20029;-79
2023/12/29 06:34:19;;;;;;;6.93;3.90;;;;;;;7.32;100.00;98832.22;5082297;28;20032;-80
2023/12/29 06:36:44;;;;;;;6.38;4.40;;;;;;;7.30;100.00;98838.78;5069990;28;20111;-81
2023/12/29 06:39:09;;;;;;;8.57;4.45;;;;;;;7.25;100.00;98834.78;5056102;28;20049;-79
2023/12/29 06:41:34;;;;;;;11.30;5.47;;;;;;;7.14;100.00;98829.84;5068290;28;20363;-81
2023/12/29 06:44:00;;;;;;;9.55;5.13;;;;;;;7.11;100.00;98830.19;5061785;28;20049;-80
2023/12/29 06:46:25;;;;;;;12.77;5.45;;;;;;;7.11;100.00;98854.41;5068578;28;20084;-81
2023/12/29 06:48:51;;;;;;;10.63;5.53;;;;;;;7.07;100.00;98839.63;5084056;28;20035;-82
2023/12/29 06:51:17;;;;;;;8.23;5.00;;;;;;;7.19;100.00;98832.00;5058855;28;20028;-80
2023/12/29 06:53:43;;;;;;;10.10;5.00;;;;;;;7.03;100.00;98819.50;5046611;28;20036;-78
2023/12/29 06:56:12;;;;;;;15.20;5.88;;;;;;;7.14;100.00;98845.16;5059787;28;20024;-79
2023/12/29 06:58:38;;;;;;;10.13;6.40;;;;;;;7.08;100.00;98829.72;5060353;28;20028;-78
2023/12/29 07:01:03;;;;;;;10.18;5.65;;;;;;;7.09;100.00;98851.06;5067746;28;20042;-79
2023/12/29 07:03:28;;;;;;;9.55;5.35;;;;;;;7.09;100.00;98848.38;5067252;28;20039;-80
2023/12/29 07:05:54;;;;;;;8.65;5.07;;;;;;;7.04;100.00;98840.00;5055636;28;20024;-76
2023/12/29 07:08:19;;;;;;;10.43;5.50;;;;;;;7.15;100.00;98849.50;5075699;28;20040;-76
2023/12/29 07:10:48;;;;;;;9.05;5.88;;;;;;;7.17;100.00;98851.00;5075805;28;20021;-81
2023/12/29 07:13:13;;;;;;;10.10;5.50;;;;;;;7.26;100.00;98843.72;5060506;28;20378;-77
2023/12/29 07:15:38;;;;;;;9.65;5.30;;;;;;;7.16;100.00;98822.44;5079572;28;20043;-76
2023/12/29 07:18:04;;;;;;;6.75;4.07;;;;;;;7.42;100.00;98856.19;5058963;28;20025;-77
2023/12/29 07:20:29;;;;;;;5.75;3.72;;;;;;;7.49;100.00;98851.72;5049365;28;20087;-77
2023/12/29 07:22:54;;;;;;;13.15;4.78;;;;;;;7.34;100.00;98819.41;5081755;28;20052;-76
2023/12/29 07:25:20;;;;;;;8.10;4.13;;;;;;;7.39;100.00;98826.94;5071319;28;20111;-78
2023/12/29 07:27:45;;;;;;;7.43;3.83;;;;;;;7.57;100.00;98835.53;5046528;28;20112;-77
2023/12/29 07:30:11;;;;;;;7.88;4.50;;;;;;;7.52;100.00;98816.38;5069285;28;20028;-78
2023/12/29 07:32:36;;;;;;;8.25;4.53;;;;;;;7.76;100.00;98838.69;5070254;28;20025;-78
2023/12/29 07:35:02;;;;;;;13.73;5.43;;;;;;;7.71;100.00;98841.13;5060704;28;20020;-77
2023/12/29 07:37:27;;;;;;;10.02;4.68;;;;;;;7.50;100.00;98806.81;5067578;28;20035;-78
2023/12/29 07:39:52;;;;;;;6.85;4.10;;;;;;;7.47;100.00;98802.66;5061081;28;20473;-77
2023/12/29 07:42:18;;;;;;;7.75;4.45;;;;;;;7.35;100.00;98772.63;5043322;28;20878;-77
2023/12/29 07:44:43;;;;;;;6.95;4.57;;;;;;;7.58;100.00;98794.09;5066039;28;20389;-78
2023/12/29 07:47:10;;;;;;;12.02;5.68;;;;;;;7.62;100.00;98779.28;5069338;28;20051;-74
2023/12/29 07:49:35;;;;;;;7.75;5.20;;;;;;;7.85;100.00;98821.41;5051345;28;20543;-74
2023/12/29 07:52:01;;;;;;;7.13;4.97;;;;;;;7.86;100.00;98829.31;5048380;28;20038;-77
2023/12/29 07:54:26;;;;;;;9.32;4.88;;;;;;;7.66;100.00;98812.03;5053568;28;20028;-80
2023/12/29 07:56:52;;;;;;;7.68;4.68;;;;;;;7.88;100.00;98847.97;5055275;28;20024;-87
2023/12/29 07:59:17;;;;;;;9.43;4.68;;;;;;;7.91;100.00;98850.28;5043299;23;20124;-55
2023/12/29 08:01:43;;;;;;;9.57;4.32;;;;;;;7.93;100.00;98850.94;5067361;28;20538;-54
2023/12/29 08:04:08;;;;;;;6.45;4.40;;;;;;;8.00;100.00;98851.91;5043449;28;20462;-55
2023/12/29 08:06:33;;;;;;;8.48;4.90;;;;;;;8.04;100.00;98855.91;5026609;28;20041;-55
2023/12/29 08:08:59;;;;;;;7.25;4.75;;;;;;;8.15;100.00;98853.72;5026778;28;20029;-55
2023/12/29 08:11:24;;;;;;;9.52;5.85;;;;;;;8.19;100.00;98846.97;5037812;28;20033;-55
2023/12/29 08:13:50;;;;;;;10.00;5.68;;;;;;;8.19;100.00;98849.66;5037292;28;20115;-54
2023/12/29 08:16:18;;;;;;;12.13;5.47;;;;;;;8.22;100.00;98844.72;5037507;28;20108;-55
2023/12/29 08:18:46;;;;;;;6.57;5.10;;;;;;;8.26;100.00;98847.91;5032856;28;20033;-55
2023/12/29 08:21:20;;;;;;;10.35;6.68;;;;;;;8.31;100.00;98848.16;5032371;28;20036;-55
2023/12/29 08:23:47;;;;;;;7.63;5.50;;;;;;;8.40;100.00;98857.00;5041198;28;20441;-55
2023/12/29 08:26:12;;;;;;;7.43;4.40;;;;;;;8.48;100.00;98846.13;5034483;28;20036;-55
2023/12/29 08:28:38;;;;;;;5.40;3.92;;;;;;;8.47;100.00;98845.28;5046537;28;20484;-55
2023/12/29 08:31:03;;;;;;;5.88;3.58;;;;;;;8.53;100.00;98858.00;5037692;28;20028;-55
2023/12/29 08:33:29;;;;;;;7.15;3.70;;;;;;;8.45;100.00;98841.94;5043899;28;20133;-55
2023/12/29 08:36:00;;;;;;;6.13;2.92;;;;;;;8.65;100.00;98866.47;5038441;28;20036;-55
2023/12/29 08:38:26;;;;;;;3.22;2.10;;;;;;;8.73;100.00;98855.56;5035369;28;20024;-55
2023/12/29 08:40:51;;;;;;;3.22;2.10;;;;;;;8.78;100.00;98860.38;5031960;28;20025;-55
2023/12/29 08:43:20;;;;;;;3.33;2.28;;;;;;;8.77;100.00;98859.53;5040384;28;20021;-55
2023/12/29 08:45:46;;;;;;;5.70;2.90;;;;;;;8.81;100.00;98860.00;5032040;28;20091;-55
2023/12/29 08:48:11;;;;;;;5.28;2.75;;;;;;;8.76;100.00;98846.25;5089089;22;20045;-75
2023/12/29 08:50:36;;;;;;;3.42;2.20;;;;;;;8.78;100.00;98845.03;5037296;28;20550;-81
2023/12/29 08:53:02;;;;;;;4.22;2.70;;;;;;;8.84;100.00;98865.00;5050918;28;20056;-72
2023/12/29 08:55:27;;;;;;;4.10;2.45;;;;;;;8.87;100.00;98864.63;5047457;28;20031;-73
2023/12/29 08:57:53;;;;;;;4.35;2.08;;;;;;;8.76;100.00;98846.25;5057293;28;20100;-75
2023/12/29 09:00:18;;;;;;;3.03;2.00;;;;;;;8.93;100.00;98858.47;5039366;28;20052;-76
2023/12/29 09:02:44;;;;;;;2.83;1.77;;;;;;;8.89;100.00;98846.38;5042871;28;20052;-82
2023/12/29 09:05:09;;;;;;;2.97;1.80;;;;;;;8.98;100.00;98834.44;5034092;28;20081;-85
2023/12/29 09:07:34;;;;;;;4.50;1.70;;;;;;;9.11;100.00;98839.13;5032797;28;20085;-83
2023/12/29 09:10:02;;;;;;;3.70;2.22;;;;;;;9.19;100.00;98841.69;5043263;28;20025;-82
2023/12/29 09:12:27;;;;;;;4.60;2.03;;;;;;;9.30;100.00;98826.84;5032933;28;20024;-78
2023/12/29 09:14:53;;;;;;;5.50;2.00;;;;;;;9.36;100.00;98842.28;5042157;28;20031;-75
2023/12/29 09:17:18;;;;;;;2.80;1.65;;;;;;;9.36;100.00;98838.75;5044397;28;20056;-76
2023/12/29 09:19:43;;;;;;;2.70;1.63;;;;;;;9.31;100.00;98839.31;5040528;28;20544;-85
2023/12/29 09:22:09;;;;;;;4.72;1.80;;;;;;;9.29;100.00;98835.13;5034770;28;20486;-81
2023/12/29 09:24:34;;;;;;;3.20;1.48;;;;;;;9.27;100.00;98832.63;5050719;28;20088;-80
2023/12/29 09:26:59;;;;;;;3.90;2.13;;;;;;;9.18;100.00;98807.63;5048595;28;20120;-85
2023/12/29 09:29:25;;;;;;;3.50;1.83;;;;;;;9.46;100.00;98835.69;5019960;28;20032;-73
2023/12/29 09:31:50;;;;;;;2.38;1.20;;;;;;;9.49;100.00;98824.50;5034306;28;20056;-73
2023/12/29 09:34:15;;;;;;;2.40;1.60;;;;;;;9.50;100.00;98827.00;5037318;28;20047;-74
2023/12/29 09:36:41;;;;;;;4.65;1.88;;;;;;;9.60;100.00;98832.91;5036909;28;20029;-73
2023/12/29 09:39:06;;;;;;;3.08;1.58;;;;;;;9.55;100.00;98816.44;5019367;28;20052;-74
2023/12/29 09:41:35;;;;;;;2.38;1.48;;;;;;;9.73;100.00;98842.97;5037307;28;20033;-73
2023/12/29 09:44:03;;;;;;;4.43;1.52;;;;;;;9.67;100.00;98835.66;5039044;28;20024;-73
2023/12/29 09:46:32;;;;;;;2.70;1.60;;;;;;;9.93;100.00;98842.25;5042098;28;20033;-73
2023/12/29 09:49:01;;;;;;;5.78;1.67;;;;;;;10.02;100.00;98828.41;5044379;28;20021;-73
2023/12/29 09:51:27;;;;;;;2.60;1.80;;;;;;;10.07;100.00;98822.41;5042870;28;20033;-73
2023/12/29 09:53:53;;;;;;;5.10;1.40;;;;;;;10.23;100.00;98813.94;5040822;28;20385;-74
2023/12/29 09:56:19;;;;;;;3.50;1.50;;;;;;;10.33;100.00;98815.50;5036782;28;20474;-74
2023/12/29 09:58:48;;;;;;;3.03;1.50;;;;;;;10.66;100.00;98815.59;5035247;28;20096;-72
2023/12/29 10:01:14;;;;;;;2.75;1.73;;;;;;;10.74;100.00;98810.00;5024940;28;20028;-79
2023/12/29 10:03:39;;;;;;;1.98;1.33;;;;;;;10.83;100.00;98835.00;5031529;28;20544;-80
2023/12/29 10:06:09;;;;;;;1.90;1.40;;;;;;;10.84;100.00;98820.44;5036115;28;20033;-79
2023/12/29 10:08:37;;;;;;;2.50;1.58;;;;;;;10.80;100.00;98816.50;5045342;28;20418;-79
2023/12/29 10:11:05;;;;;;;2.55;1.50;;;;;;;10.92;100.00;98820.25;5043113;28;20021;-79
2023/12/29 10:13:33;;;;;;;2.58;1.40;;;;;;;10.78;100.00;98802.31;5039068;28;20017;-78
2023/12/29 10:16:14;;;;;;;3.35;1.40;;;;;;;10.86;100.00;98799.41;5038566;28;20025;-79
2023/12/29 10:18:49;;;;;;;2.20;1.52;;;;;;;10.91;100.00;98807.75;5045796;28;20449;-78
2023/12/29 10:21:28;;;;;;;2.58;1.40;;;;;;;11.12;100.00;98804.03;5042312;28;20401;-78
2023/12/29 10:24:02;;;;;;;2.65;1.67;;;;;;;11.37;100.00;98804.25;5024628;28;20033;-78
2023/12/29 10:26:28;;;;;;;4.57;1.40;;;;;;;11.29;100.00;98782.78;5049899;28;20039;-78
2023/12/29 10:28:54;;;;;;;4.07;1.48;;;;;;;11.29;100.00;98782.78;5051514;28;20316;-79
2023/12/29 10:31:20;;;;;;;2.90;1.50;;;;;;;11.31;100.00;98775.28;5038425;28;20104;-73
2023/12/29 10:33:50;;;;;;;2.03;1.30;;;;;;;11.76;100.00;98742.91;5030135;28;20531;-72
2023/12/29 10:36:15;;;;;;;2.55;1.60;;;;;;;12.88;100.00;98767.91;5046763;28;20017;-73
2023/12/29 10:38:41;;;;;;;2.13;1.23;;;;;;;13.75;100.00;98746.28;5037458;28;20103;-73
2023/12/29 10:41:12;;;;;;;1.25;0.90;;;;;;;15.24;100.00;98752.06;5027587;28;20100;-72
2023/12/29 10:43:38;;;;;;;1.58;0.75;;;;;;;16.75;100.00;98736.78;5050164;28;20037;-73
2023/12/29 10:46:08;;;;;;;2.70;0.77;;;;;;;17.00;100.00;98714.56;5049126;28;20025;-72
2023/12/29 10:48:33;;;;;;;1.20;0.68;;;;;;;17.86;100.00;98747.09;5050040;28;20032;-72
2023/12/29 10:51:00;;;;;;;0.82;0.68;;;;;;;18.50;100.00;98733.69;5061550;28;20021;-71
2023/12/29 10:53:25;;;;;;;2.60;0.70;;;;;;;18.90;100.00;98740.72;5065399;28;20474;-72
2023/12/29 10:55:50;;;;;;;2.15;0.77;;;;;;;19.30;100.00;98735.84;5070402;28;20032;-72
2023/12/29 10:58:17;;;;;;;1.08;0.70;;;;;;;19.97;100.00;98745.41;5056894;28;20024;-72
2023/12/29 11:00:43;;;;;;;1.05;0.57;;;;;;;21.24;92.58;98740.31;5045680;28;20082;-72
2023/12/29 11:03:15;;;;;;;1.10;0.70;;;;;;;22.18;82.07;98736.34;5061229;28;20029;-72
2023/12/29 11:05:40;;;;;;;2.08;0.60;;;;;;;22.65;73.92;98729.53;5051729;28;20367;-72
2023/12/29 11:08:15;;;;;;;0.70;0.60;;;;;;;21.83;75.11;98722.41;5054014;28;20055;-73
2023/12/29 11:10:42;;;;;;;1.67;0.60;;;;;;;20.35;82.56;98731.28;5048834;28;20024;-72
2023/12/29 11:13:10;;;;;;;1.58;0.73;;;;;;;20.55;84.32;98725.06;5049247;28;20020;-72
2023/12/29 11:15:37;;;;;;;1.63;0.77;;;;;;;20.48;84.19;98701.66;5049911;28;20029;-73
2023/12/29 11:18:05;;;;;;;1.00;0.63;;;;;;;20.49;92.54;98706.91;5033970;28;20080;-73
2023/12/29 11:20:31;;;;;;;1.35;0.60;;;;;;;21.97;81.36;98708.84;5060212;28;20116;-74
2023/12/29 11:22:57;;;;;;;0.93;0.55;;;;;;;21.47;77.25;98702.34;5053166;28;20036;-73
2023/12/29 11:25:22;;;;;;;0.68;0.45;;;;;;;19.05;94.23;98707.97;5065895;28;20436;-73
2023/12/29 11:27:48;;;;;;;0.77;0.60;;;;;;;18.06;100.00;98689.06;5055125;28;20033;-73